createdAt,value
2019-06-20T00:02:00.024Z,19.00
2019-06-20T00:04:30.755Z,19.00
2019-06-20T00:07:01.640Z,19.00
2019-06-20T00:09:32.593Z,18.90
2019-06-20T00:12:04.589Z,18.90
2019-06-20T00:14:35.169Z,18.90
2019-06-20T00:17:05.903Z,18.80
2019-06-20T00:19:38.103Z,18.80
2019-06-20T00:22:13.104Z,18.80
2019-06-20T00:24:44.063Z,18.80
2019-06-20T00:27:14.784Z,18.90
2019-06-20T00:29:49.023Z,18.90
2019-06-20T00:32:24.331Z,18.80
2019-06-20T00:34:55.977Z,18.80
2019-06-20T00:37:26.716Z,18.80
2019-06-20T00:39:58.665Z,18.80
2019-06-20T00:42:29.414Z,18.80
2019-06-20T00:45:01.107Z,18.90
2019-06-20T00:47:33.788Z,18.90
2019-06-20T00:50:10.676Z,18.90
2019-06-20T00:52:41.460Z,18.90
2019-06-20T00:55:12.318Z,19.00
2019-06-20T00:57:46.887Z,19.00
2019-06-20T01:00:21.163Z,18.90
2019-06-20T01:02:55.087Z,18.90
2019-06-20T01:05:25.983Z,19.00
2019-06-20T01:07:56.573Z,19.00
2019-06-20T01:10:28.689Z,19.10
2019-06-20T01:13:02.028Z,19.10
2019-06-20T01:15:33.121Z,19.10
2019-06-20T01:18:05.447Z,19.10
2019-06-20T01:20:40.192Z,19.10
2019-06-20T01:23:12.482Z,19.10
2019-06-20T01:25:47.580Z,19.20
2019-06-20T01:28:20.091Z,19.20
2019-06-20T01:30:51.441Z,19.10
2019-06-20T01:33:26.337Z,19.20
2019-06-20T01:36:00.042Z,19.20
2019-06-20T01:38:57.464Z,19.20
2019-06-20T01:41:19.381Z,19.20
2019-06-20T01:43:51.214Z,19.20
2019-06-20T01:46:22.496Z,19.30
2019-06-20T01:48:55.307Z,19.30
2019-06-20T01:51:25.912Z,19.30
2019-06-20T01:53:57.001Z,19.40
2019-06-20T01:56:27.434Z,19.40
2019-06-20T01:59:03.551Z,19.40
2019-06-20T02:01:34.540Z,19.50
2019-06-20T02:04:09.522Z,19.40
2019-06-20T02:06:42.447Z,19.40
2019-06-20T02:09:13.499Z,19.40
2019-06-20T02:11:46.066Z,19.40
2019-06-20T02:14:16.597Z,19.40
2019-06-20T02:16:48.155Z,19.40
2019-06-20T02:19:22.438Z,19.40
2019-06-20T02:21:53.682Z,19.30
2019-06-20T02:24:24.424Z,19.30
2019-06-20T02:26:58.768Z,19.20
2019-06-20T02:29:40.879Z,19.20
2019-06-20T02:32:13.412Z,19.20
2019-06-20T02:34:50.251Z,19.20
2019-06-20T02:37:20.850Z,19.20
2019-06-20T02:39:51.696Z,19.10
2019-06-20T02:42:24.670Z,19.10
2019-06-20T02:44:58.800Z,19.00
2019-06-20T02:47:29.414Z,19.00
2019-06-20T02:50:00.062Z,18.90
2019-06-20T02:52:31.105Z,18.80
2019-06-20T02:55:05.419Z,18.80
2019-06-20T02:57:36.237Z,18.80
2019-06-20T03:00:11.271Z,18.70
2019-06-20T03:02:41.979Z,18.70
2019-06-20T03:05:12.861Z,18.70
2019-06-20T03:07:45.024Z,18.60
2019-06-20T03:10:16.049Z,18.60
2019-06-20T03:12:51.213Z,18.70
2019-06-20T03:15:25.125Z,18.70
2019-06-20T03:17:55.775Z,18.70
2019-06-20T03:20:26.162Z,18.70
2019-06-20T03:23:04.164Z,18.70
2019-06-20T03:25:35.311Z,18.70
2019-06-20T03:28:07.682Z,18.80
2019-06-20T03:30:41.977Z,18.80
2019-06-20T03:33:13.791Z,18.90
2019-06-20T03:35:45.853Z,18.80
2019-06-20T03:38:17.193Z,18.90
2019-06-20T03:40:50.035Z,18.90
2019-06-20T03:43:20.588Z,18.90
2019-06-20T03:45:50.944Z,18.90
2019-06-20T03:48:22.384Z,19.00
2019-06-20T03:50:55.874Z,19.00
2019-06-20T03:53:28.042Z,19.00
2019-06-20T03:56:00.168Z,19.00
2019-06-20T03:58:33.047Z,19.00
2019-06-20T04:01:10.032Z,19.00
2019-06-20T04:03:40.648Z,19.00
2019-06-20T04:06:11.701Z,18.90
2019-06-20T04:08:43.050Z,19.00
2019-06-20T04:11:14.775Z,19.00
2019-06-20T04:13:46.053Z,19.00
2019-06-20T04:16:18.241Z,19.00
2019-06-20T04:18:49.373Z,19.00
2019-06-20T04:21:20.517Z,19.00
2019-06-20T04:23:56.665Z,19.00
2019-06-20T04:26:27.061Z,19.00
2019-06-20T04:28:57.765Z,19.00
2019-06-20T04:31:28.516Z,19.00
2019-06-20T04:34:00.707Z,19.00
2019-06-20T04:36:33.695Z,19.00
2019-06-20T04:39:18.391Z,19.00
2019-06-20T04:41:36.511Z,19.00
2019-06-20T04:44:12.857Z,19.00
2019-06-20T04:46:51.198Z,19.00
2019-06-20T04:49:22.319Z,19.00
2019-06-20T04:51:53.362Z,19.00
2019-06-20T04:54:23.687Z,19.00
2019-06-20T04:56:55.129Z,19.10
2019-06-20T04:59:25.537Z,19.10
2019-06-20T05:01:56.197Z,19.10
2019-06-20T05:04:26.600Z,19.10
2019-06-20T05:07:08.015Z,19.10
2019-06-20T05:09:41.778Z,19.10
2019-06-20T05:12:16.541Z,19.10
2019-06-20T05:14:47.383Z,19.10
2019-06-20T05:17:20.887Z,19.10
2019-06-20T05:19:56.120Z,19.10
2019-06-20T05:22:31.979Z,19.10
2019-06-20T05:25:02.233Z,19.10
2019-06-20T05:27:33.294Z,19.10
2019-06-20T05:30:03.876Z,19.10
2019-06-20T05:32:35.738Z,19.10
2019-06-20T05:35:06.970Z,19.20
2019-06-20T05:37:39.138Z,19.20
2019-06-20T05:40:09.991Z,19.20
2019-06-20T05:42:40.624Z,19.20
2019-06-20T05:45:12.351Z,19.20
2019-06-20T05:47:46.399Z,19.30
2019-06-20T05:50:18.426Z,19.20
2019-06-20T05:52:51.265Z,19.30
2019-06-20T05:55:23.455Z,19.40
2019-06-20T05:57:53.903Z,19.30
2019-06-20T06:00:25.418Z,19.40
2019-06-20T06:02:58.751Z,19.40
2019-06-20T06:05:31.866Z,19.40
2019-06-20T06:08:04.919Z,19.50
2019-06-20T06:10:36.142Z,19.50
2019-06-20T06:13:10.391Z,19.70
2019-06-20T06:15:41.323Z,19.80
2019-06-20T06:18:12.802Z,19.80
2019-06-20T06:20:47.012Z,19.80
2019-06-20T06:23:17.569Z,19.90
2019-06-20T06:25:50.751Z,20.00
2019-06-20T06:28:21.847Z,20.10
2019-06-20T06:30:52.509Z,20.10
2019-06-20T06:33:23.005Z,20.20
2019-06-20T06:35:56.363Z,20.30
2019-06-20T06:38:28.838Z,20.10
2019-06-20T06:40:59.987Z,20.10
2019-06-20T06:43:31.230Z,20.10
2019-06-20T06:46:04.812Z,20.20
2019-06-20T06:48:35.653Z,20.10
2019-06-20T06:51:07.829Z,20.20
2019-06-20T06:53:40.097Z,20.30
2019-06-20T06:56:18.199Z,20.40
2019-06-20T06:58:51.829Z,20.60
2019-06-20T07:01:26.157Z,20.80
2019-06-20T07:03:56.764Z,21.00
2019-06-20T07:06:32.010Z,21.20
2019-06-20T07:09:07.582Z,21.30
2019-06-20T07:11:39.595Z,21.10
2019-06-20T07:14:15.186Z,21.30
2019-06-20T07:16:59.449Z,21.70
2019-06-20T07:19:18.041Z,22.10
2019-06-20T07:21:53.363Z,21.90
2019-06-20T07:24:29.792Z,21.80
2019-06-20T07:27:02.056Z,21.70
2019-06-20T07:29:37.185Z,21.80
2019-06-20T07:32:10.575Z,21.80
2019-06-20T07:34:44.920Z,21.90
2019-06-20T07:37:18.510Z,22.00
2019-06-20T07:39:50.650Z,22.00
2019-06-20T07:42:22.423Z,21.80
2019-06-20T07:44:56.514Z,21.80
2019-06-20T07:47:30.622Z,21.70
2019-06-20T07:50:03.448Z,21.80
2019-06-20T07:52:34.575Z,21.80
2019-06-20T07:55:09.093Z,21.80
2019-06-20T07:57:43.422Z,21.80
2019-06-20T08:00:16.443Z,21.90
2019-06-20T08:02:49.546Z,22.00
2019-06-20T08:05:21.926Z,22.20
2019-06-20T08:07:54.562Z,22.10
2019-06-20T08:10:25.616Z,22.10
2019-06-20T08:12:57.785Z,22.00
2019-06-20T08:15:33.870Z,22.00
2019-06-20T08:18:07.882Z,22.20
2019-06-20T08:20:38.653Z,22.20
2019-06-20T08:23:11.640Z,22.20
2019-06-20T08:25:43.919Z,22.30
2019-06-20T08:28:18.878Z,22.10
2019-06-20T08:30:51.730Z,21.90
2019-06-20T08:33:23.924Z,22.10
2019-06-20T08:35:56.964Z,22.20
2019-06-20T08:38:28.164Z,22.50
2019-06-20T08:41:02.596Z,22.60
2019-06-20T08:43:36.057Z,23.00
2019-06-20T08:46:12.643Z,23.30
2019-06-20T08:48:47.854Z,23.00
2019-06-20T08:51:23.400Z,22.80
2019-06-20T08:53:57.448Z,22.60
2019-06-20T08:56:30.646Z,22.40
2019-06-20T08:59:20.709Z,22.50
2019-06-20T09:01:35.712Z,22.60
2019-06-20T09:04:06.133Z,22.50
2019-06-20T09:06:44.081Z,22.40
2019-06-20T09:09:17.031Z,22.50
2019-06-20T09:11:50.420Z,22.50
2019-06-20T09:14:20.952Z,22.60
2019-06-20T09:16:59.373Z,22.60
2019-06-20T09:19:30.195Z,22.50
2019-06-20T09:22:04.991Z,22.40
2019-06-20T09:24:49.079Z,22.40
2019-06-20T09:27:43.532Z,22.40
2019-06-20T09:30:27.516Z,22.40
2019-06-20T09:33:06.455Z,22.40
2019-06-20T09:35:37.075Z,22.50
2019-06-20T09:38:11.945Z,22.50
2019-06-20T09:40:42.640Z,22.60
2019-06-20T09:43:26.747Z,22.50
2019-06-20T09:45:46.427Z,22.30
2019-06-20T09:48:20.373Z,22.30
2019-06-20T09:50:52.905Z,22.60
2019-06-20T09:53:26.658Z,22.80
2019-06-20T09:55:59.541Z,23.00
2019-06-20T09:58:31.662Z,23.00
2019-06-20T10:01:03.081Z,23.20
2019-06-20T10:03:47.776Z,23.30
2019-06-20T10:06:26.385Z,23.10
2019-06-20T10:08:58.200Z,22.90
2019-06-20T10:11:35.026Z,22.70
2019-06-20T10:14:06.833Z,22.70
2019-06-20T10:16:45.893Z,22.50
2019-06-20T10:19:13.437Z,22.80
2019-06-20T10:21:53.855Z,23.10
2019-06-20T10:24:30.974Z,23.50
2019-06-20T10:27:02.745Z,23.80
2019-06-20T10:29:33.879Z,24.00
2019-06-20T10:32:08.607Z,24.20
2019-06-20T10:34:40.669Z,24.50
2019-06-20T10:37:12.430Z,24.60
2019-06-20T10:39:45.035Z,24.80
2019-06-20T10:42:19.201Z,24.60
2019-06-20T10:44:52.178Z,24.40
2019-06-20T10:47:33.606Z,24.40
2019-06-20T10:50:00.340Z,24.40
2019-06-20T10:52:30.628Z,24.50
2019-06-20T10:55:03.842Z,24.80
2019-06-20T10:57:35.048Z,24.70
2019-06-20T11:00:29.699Z,24.80
2019-06-20T11:02:48.976Z,25.10
2019-06-20T11:05:22.190Z,25.30
2019-06-20T11:07:56.101Z,25.80
2019-06-20T11:10:26.796Z,26.20
2019-06-20T11:12:58.967Z,26.40
2019-06-20T11:15:32.518Z,26.10
2019-06-20T11:18:03.065Z,26.00
2019-06-20T11:20:36.400Z,25.50
2019-06-20T11:23:09.231Z,25.30
2019-06-20T11:25:40.241Z,25.00
2019-06-20T11:28:38.193Z,25.00
2019-06-20T11:31:15.116Z,24.80
2019-06-20T11:33:45.556Z,24.90
2019-06-20T11:36:18.702Z,25.10
2019-06-20T11:38:55.510Z,25.40
2019-06-20T11:41:31.361Z,25.00
2019-06-20T11:44:04.987Z,24.70
2019-06-20T11:46:37.478Z,24.80
2019-06-20T11:49:08.718Z,24.70
2019-06-20T11:51:41.814Z,24.80
2019-06-20T11:54:18.196Z,24.90
2019-06-20T11:56:50.225Z,25.00
2019-06-20T11:59:27.496Z,24.80
2019-06-20T12:01:58.423Z,24.80
2019-06-20T12:04:29.034Z,24.50
2019-06-20T12:06:59.470Z,24.50
2019-06-20T12:09:40.872Z,24.40
2019-06-20T12:12:06.636Z,24.30
2019-06-20T12:14:37.882Z,24.10
2019-06-20T12:17:09.442Z,24.10
2019-06-20T12:19:46.721Z,24.00
2019-06-20T12:22:20.151Z,23.90
2019-06-20T12:24:53.978Z,24.00
2019-06-20T12:27:24.710Z,24.00
2019-06-20T12:29:59.738Z,23.90
2019-06-20T12:32:37.435Z,24.00
2019-06-20T12:35:09.001Z,23.90
2019-06-20T12:37:40.464Z,24.00
2019-06-20T12:40:11.593Z,24.00
2019-06-20T12:42:43.185Z,24.20
2019-06-20T12:45:16.365Z,24.30
2019-06-20T12:47:50.118Z,24.30
2019-06-20T12:50:23.441Z,24.20
2019-06-20T12:52:55.163Z,24.30
2019-06-20T12:55:24.497Z,24.20
2019-06-20T12:57:53.886Z,24.00
2019-06-20T13:00:23.730Z,23.80
2019-06-20T13:02:53.091Z,23.70
2019-06-20T13:05:22.660Z,23.60
2019-06-20T13:07:52.217Z,23.50
2019-06-20T13:10:22.397Z,23.40
2019-06-20T13:12:51.709Z,23.20
2019-06-20T13:15:22.117Z,23.00
2019-06-20T13:17:51.681Z,22.80
2019-06-20T13:20:21.283Z,22.50
2019-06-20T13:22:50.558Z,22.30
2019-06-20T13:25:20.123Z,22.00
2019-06-20T13:27:50.563Z,21.70
2019-06-20T13:30:20.510Z,21.20
2019-06-20T13:32:49.952Z,21.00
2019-06-20T13:35:20.558Z,20.90
2019-06-20T13:37:50.263Z,20.80
2019-06-20T13:40:20.103Z,20.70
2019-06-20T13:42:50.310Z,20.80
2019-06-20T13:45:23.702Z,20.80
2019-06-20T13:47:53.316Z,21.00
2019-06-20T13:50:23.490Z,21.20
2019-06-20T13:52:53.412Z,21.40
2019-06-20T13:55:22.726Z,21.50
2019-06-20T13:57:52.181Z,21.60
2019-06-20T14:00:23.488Z,21.70
2019-06-20T14:02:52.843Z,21.80
2019-06-20T14:05:22.361Z,22.00
2019-06-20T14:07:54.386Z,22.20
2019-06-20T14:10:23.346Z,21.90
2019-06-20T14:12:52.718Z,21.70
2019-06-20T14:15:22.208Z,21.80
2019-06-20T14:17:51.501Z,21.60
2019-06-20T14:20:21.674Z,21.60
2019-06-20T14:23:20.796Z,21.50
2019-06-20T14:25:51.528Z,21.60
2019-06-20T14:28:21.125Z,21.70
2019-06-20T14:30:50.488Z,21.70
2019-06-20T14:33:19.779Z,21.90
2019-06-20T14:35:50.759Z,21.90
2019-06-20T14:38:20.219Z,21.80
2019-06-20T14:40:50.021Z,21.90
2019-06-20T14:43:19.668Z,21.70
2019-06-20T14:45:48.999Z,21.40
2019-06-20T14:48:18.304Z,21.20
2019-06-20T14:50:48.286Z,21.10
2019-06-20T14:53:19.076Z,21.00
2019-06-20T14:55:49.630Z,21.00
2019-06-20T14:58:19.028Z,21.00
2019-06-20T15:00:49.617Z,21.20
2019-06-20T15:03:19.407Z,21.10
2019-06-20T15:05:50.196Z,21.00
2019-06-20T15:08:19.603Z,20.90
2019-06-20T15:10:50.087Z,20.70
2019-06-20T15:13:19.724Z,20.60
2019-06-20T15:15:49.525Z,20.50
2019-06-20T15:18:19.106Z,20.50
2019-06-20T15:20:50.189Z,20.50
2019-06-20T15:23:19.880Z,20.60
2019-06-20T15:25:50.364Z,20.60
2019-06-20T15:28:19.993Z,20.80
2019-06-20T15:30:50.867Z,21.00
2019-06-20T15:33:20.749Z,21.10
2019-06-20T15:35:51.175Z,21.30
2019-06-20T15:38:21.209Z,21.30
2019-06-20T15:40:51.587Z,21.30
2019-06-20T15:43:21.319Z,21.30
2019-06-20T15:45:51.978Z,21.30
2019-06-20T15:48:21.622Z,21.40
2019-06-20T15:50:51.624Z,21.50
2019-06-20T15:53:20.890Z,21.50
2019-06-20T15:55:50.271Z,21.60
2019-06-20T15:58:19.591Z,21.90
2019-06-20T16:00:49.202Z,22.20
2019-06-20T16:03:19.554Z,22.30
2019-06-20T16:05:49.182Z,22.50
2019-06-20T16:08:18.749Z,22.80
2019-06-20T16:10:48.043Z,22.60
2019-06-20T16:13:17.571Z,22.50
2019-06-20T16:15:47.137Z,22.40
2019-06-20T16:18:16.717Z,22.30
2019-06-20T16:20:46.424Z,22.40
2019-06-20T16:23:15.849Z,22.30
2019-06-20T16:25:45.216Z,22.50
2019-06-20T16:28:14.770Z,22.70
2019-06-20T16:30:44.044Z,22.80
2019-06-20T16:33:25.151Z,22.70
2019-06-20T16:35:58.525Z,22.90
2019-06-20T16:38:28.098Z,23.30
2019-06-20T16:40:57.529Z,23.70
2019-06-20T16:43:26.972Z,24.10
2019-06-20T16:45:56.232Z,24.10
2019-06-20T16:48:25.740Z,24.10
2019-06-20T16:50:55.170Z,23.70
2019-06-20T16:53:24.487Z,23.40
2019-06-20T16:55:53.840Z,23.30
2019-06-20T16:58:23.347Z,23.30
2019-06-20T17:00:52.633Z,23.10
2019-06-20T17:03:22.180Z,22.80
2019-06-20T17:05:51.784Z,22.60
2019-06-20T17:08:21.520Z,22.60
2019-06-20T17:10:51.106Z,22.60
2019-06-20T17:13:20.384Z,22.80
2019-06-20T17:15:49.679Z,22.70
2019-06-20T17:18:18.931Z,22.70
2019-06-20T17:20:48.188Z,22.80
2019-06-20T17:23:18.451Z,22.90
2019-06-20T17:25:47.922Z,22.90
2019-06-20T17:28:17.310Z,23.00
2019-06-20T17:30:46.581Z,23.20
2019-06-20T17:33:16.272Z,23.30
2019-06-20T17:35:45.962Z,23.40
2019-06-20T17:38:15.719Z,23.40
2019-06-20T17:40:45.480Z,23.40
2019-06-20T17:43:15.193Z,23.50
2019-06-20T17:45:44.863Z,23.30
2019-06-20T17:48:14.512Z,23.20
2019-06-20T17:50:43.796Z,23.00
2019-06-20T17:53:13.486Z,22.90
2019-06-20T17:55:43.086Z,22.70
2019-06-20T17:58:12.529Z,22.50
2019-06-20T18:00:41.884Z,22.40
2019-06-20T18:03:11.195Z,22.30
2019-06-20T18:05:40.533Z,22.10
2019-06-20T18:08:15.107Z,22.10
2019-06-20T18:10:40.891Z,22.10
2019-06-20T18:13:10.228Z,22.00
2019-06-20T18:15:39.623Z,21.90
2019-06-20T18:18:09.007Z,21.80
2019-06-20T18:20:38.279Z,21.80
2019-06-20T18:23:07.588Z,21.90
2019-06-20T18:25:36.892Z,21.80
2019-06-20T18:28:06.163Z,21.90
2019-06-20T18:30:43.216Z,21.90
2019-06-20T18:33:13.235Z,21.80
2019-06-20T18:35:43.082Z,21.80
2019-06-20T18:38:12.607Z,21.80
2019-06-20T18:40:41.964Z,21.70
2019-06-20T18:43:11.286Z,21.70
2019-06-20T18:45:40.588Z,21.60
2019-06-20T18:48:10.156Z,21.60
2019-06-20T18:50:39.542Z,21.70
2019-06-20T18:53:08.795Z,21.60
2019-06-20T18:55:38.097Z,21.50
2019-06-20T18:58:07.382Z,21.50
2019-06-20T19:00:36.659Z,21.40
2019-06-20T19:03:29.161Z,21.40
2019-06-20T19:06:08.628Z,21.40
2019-06-20T19:08:37.910Z,21.30
2019-06-20T19:11:07.261Z,21.30
2019-06-20T19:13:36.616Z,21.20
2019-06-20T19:16:06.327Z,21.20
2019-06-20T19:18:35.832Z,20.80
2019-06-20T19:21:05.300Z,20.70
2019-06-20T19:23:34.982Z,20.60
2019-06-20T19:26:04.301Z,20.60
2019-06-20T19:28:33.596Z,20.50
2019-06-20T19:31:02.897Z,20.30
2019-06-20T19:33:32.270Z,20.20
2019-06-20T19:36:01.868Z,20.10
2019-06-20T19:38:31.457Z,20.00
2019-06-20T19:41:00.722Z,19.90
2019-06-20T19:43:32.084Z,19.70
2019-06-20T19:46:01.440Z,19.70
2019-06-20T19:48:30.728Z,19.60
2019-06-20T19:51:03.350Z,19.60
2019-06-20T19:53:32.658Z,19.50
2019-06-20T19:56:01.976Z,19.50
2019-06-20T19:58:31.551Z,19.40
2019-06-20T20:01:01.114Z,19.30
2019-06-20T20:03:30.487Z,19.20
2019-06-20T20:06:00.154Z,19.20
2019-06-20T20:08:30.369Z,19.00
2019-06-20T20:11:00.902Z,19.00
2019-06-20T20:13:30.535Z,18.90
2019-06-20T20:16:00.263Z,18.80
2019-06-20T20:18:29.553Z,18.80
2019-06-20T20:20:58.828Z,18.70
2019-06-20T20:23:28.190Z,18.60
2019-06-20T20:25:57.460Z,18.60
2019-06-20T20:28:26.745Z,18.50
2019-06-20T20:30:56.035Z,18.40
2019-06-20T20:33:25.569Z,18.40
2019-06-20T20:35:54.901Z,18.40
2019-06-20T20:38:24.433Z,18.30
2019-06-20T20:40:54.003Z,18.20
2019-06-20T20:43:23.536Z,18.20
2019-06-20T20:45:53.183Z,18.20
2019-06-20T20:48:22.767Z,18.10
2019-06-20T20:50:52.027Z,18.00
2019-06-20T20:53:21.399Z,18.00
2019-06-20T20:55:50.970Z,18.10
2019-06-20T20:58:20.567Z,18.10
2019-06-20T21:00:57.368Z,18.10
2019-06-20T21:03:26.724Z,18.10
2019-06-20T21:05:56.313Z,18.10
2019-06-20T21:08:25.876Z,18.10
2019-06-20T21:10:55.273Z,18.10
2019-06-20T21:13:24.579Z,18.00
2019-06-20T21:15:53.859Z,17.90
2019-06-20T21:18:23.183Z,17.90
2019-06-20T21:20:52.468Z,17.80
2019-06-20T21:23:21.766Z,17.70
2019-06-20T21:25:51.307Z,17.70
2019-06-20T21:28:20.679Z,17.70
2019-06-20T21:30:50.299Z,17.70
2019-06-20T21:33:19.689Z,17.70
2019-06-20T21:35:49.314Z,17.80
2019-06-20T21:38:18.851Z,17.70
2019-06-20T21:40:48.131Z,17.70
2019-06-20T21:43:17.825Z,17.70
2019-06-20T21:45:47.082Z,17.80
2019-06-20T21:48:16.469Z,17.80
2019-06-20T21:50:46.166Z,17.80
2019-06-20T21:53:15.888Z,17.80
2019-06-20T21:55:45.527Z,17.90
2019-06-20T21:58:15.139Z,17.90
2019-06-20T22:00:48.018Z,17.90
2019-06-20T22:03:17.528Z,18.00
2019-06-20T22:05:47.169Z,18.00
2019-06-20T22:08:16.784Z,18.00
2019-06-20T22:10:46.085Z,18.10
2019-06-20T22:13:16.088Z,18.00
2019-06-20T22:15:45.821Z,18.00
2019-06-20T22:18:15.536Z,17.90
2019-06-20T22:20:44.833Z,17.90
2019-06-20T22:23:14.392Z,17.90
2019-06-20T22:25:43.936Z,17.80
2019-06-20T22:28:13.354Z,17.70
2019-06-20T22:30:46.126Z,17.60
2019-06-20T22:33:15.410Z,17.60
2019-06-20T22:35:46.048Z,17.60
2019-06-20T22:38:15.663Z,17.50
2019-06-20T22:40:45.535Z,17.50
2019-06-20T22:43:14.865Z,17.50
2019-06-20T22:45:44.168Z,17.60
2019-06-20T22:48:13.485Z,17.60
2019-06-20T22:50:42.828Z,17.60
2019-06-20T22:53:12.192Z,17.60
2019-06-20T22:55:41.495Z,17.70
2019-06-20T22:58:10.763Z,17.60
2019-06-20T23:00:40.033Z,17.60
2019-06-20T23:03:09.676Z,17.60
2019-06-20T23:05:41.985Z,17.60
2019-06-20T23:08:11.305Z,17.60
2019-06-20T23:10:40.875Z,17.50
2019-06-20T23:13:10.147Z,17.50
2019-06-20T23:15:39.804Z,17.50
2019-06-20T23:18:09.373Z,17.50
2019-06-20T23:20:38.680Z,17.50
2019-06-20T23:23:08.051Z,17.50
2019-06-20T23:25:39.532Z,17.50
2019-06-20T23:28:08.866Z,17.40
2019-06-20T23:30:41.245Z,17.40
2019-06-20T23:33:12.323Z,17.40
2019-06-20T23:35:41.653Z,17.40
2019-06-20T23:38:11.291Z,17.40
2019-06-20T23:40:40.812Z,17.40
2019-06-20T23:43:10.349Z,17.40
2019-06-20T23:45:39.674Z,17.40
2019-06-20T23:48:08.976Z,17.40
2019-06-20T23:50:38.293Z,17.40
2019-06-20T23:53:13.914Z,17.30
2019-06-20T23:55:43.204Z,17.40
2019-06-20T23:58:12.489Z,17.40
